sensor_id;sensor_type;location;lat;lon;timestamp;P1;durP1;ratioP1;P2;durP2;ratioP2
76837;SDS011;65797;47.352;8.164;2023-12-20T05:39:11;8.47;;;5.40;;
76837;SDS011;65797;47.352;8.164;2023-12-20T05:41:38;7.70;;;5.13;;
76837;SDS011;65797;47.352;8.164;2023-12-20T07:37:09;14.20;;;6.63;;
76837;SDS011;65797;47.352;8.164;2023-12-20T07:39:40;8.80;;;5.90;;
76837;SDS011;65797;47.352;8.164;2023-12-20T07:42:06;11.30;;;6.60;;
76837;SDS011;65797;47.352;8.164;2023-12-20T07:47:08;8.90;;;6.97;;
76837;SDS011;65797;47.352;8.164;2023-12-20T07:59:56;9.00;;;6.70;;
76837;SDS011;65797;47.352;8.164;2023-12-20T08:02:22;12.30;;;8.00;;
76837;SDS011;65797;47.352;8.164;2023-12-20T08:04:47;10.67;;;6.67;;
76837;SDS011;65797;47.352;8.164;2023-12-20T08:07:13;8.37;;;6.90;;
76837;SDS011;65797;47.352;8.164;2023-12-20T08:09:39;10.33;;;6.73;;
76837;SDS011;65797;47.352;8.164;2023-12-20T08:12:05;9.87;;;7.50;;
76837;SDS011;65797;47.352;8.164;2023-12-20T08:14:31;10.33;;;7.40;;
76837;SDS011;65797;47.352;8.164;2023-12-20T08:16:57;11.13;;;7.23;;
76837;SDS011;65797;47.352;8.164;2023-12-20T08:19:22;14.17;;;7.97;;
76837;SDS011;65797;47.352;8.164;2023-12-20T08:21:48;12.30;;;8.00;;
76837;SDS011;65797;47.352;8.164;2023-12-20T08:24:14;12.50;;;8.67;;
76837;SDS011;65797;47.352;8.164;2023-12-20T08:26:40;11.80;;;7.60;;
76837;SDS011;65797;47.352;8.164;2023-12-20T08:29:05;10.67;;;7.40;;
76837;SDS011;65797;47.352;8.164;2023-12-20T08:31:32;11.83;;;6.80;;
76837;SDS011;65797;47.352;8.164;2023-12-20T08:33:58;10.53;;;7.63;;
76837;SDS011;65797;47.352;8.164;2023-12-20T08:36:24;11.10;;;7.47;;
76837;SDS011;65797;47.352;8.164;2023-12-20T08:38:50;9.93;;;7.50;;
76837;SDS011;65797;47.352;8.164;2023-12-20T08:41:17;11.63;;;6.93;;
76837;SDS011;65797;47.352;8.164;2023-12-20T08:43:43;13.53;;;8.13;;
76837;SDS011;65797;47.352;8.164;2023-12-20T08:54:08;23.73;;;11.47;;
76837;SDS011;65797;47.352;8.164;2023-12-20T08:56:35;16.03;;;9.80;;
76837;SDS011;65797;47.352;8.164;2023-12-20T08:59:01;10.80;;;8.40;;
76837;SDS011;65797;47.352;8.164;2023-12-20T09:01:26;8.77;;;7.13;;
76837;SDS011;65797;47.352;8.164;2023-12-20T09:03:52;11.27;;;7.77;;
76837;SDS011;65797;47.352;8.164;2023-12-20T09:06:18;12.50;;;6.97;;
76837;SDS011;65797;47.352;8.164;2023-12-20T09:08:43;12.30;;;8.80;;
76837;SDS011;65797;47.352;8.164;2023-12-20T09:11:09;11.00;;;7.80;;
76837;SDS011;65797;47.352;8.164;2023-12-20T09:13:35;10.70;;;7.00;;
76837;SDS011;65797;47.352;8.164;2023-12-20T09:16:02;11.30;;;7.50;;
76837;SDS011;65797;47.352;8.164;2023-12-20T09:18:29;13.50;;;7.50;;
76837;SDS011;65797;47.352;8.164;2023-12-20T09:20:54;9.67;;;7.00;;
76837;SDS011;65797;47.352;8.164;2023-12-20T09:23:20;9.43;;;7.30;;
76837;SDS011;65797;47.352;8.164;2023-12-20T09:25:46;9.07;;;6.60;;
76837;SDS011;65797;47.352;8.164;2023-12-20T09:28:12;10.77;;;7.70;;
76837;SDS011;65797;47.352;8.164;2023-12-20T09:30:37;8.80;;;6.60;;
76837;SDS011;65797;47.352;8.164;2023-12-20T09:33:05;9.47;;;6.70;;
76837;SDS011;65797;47.352;8.164;2023-12-20T09:35:32;11.60;;;6.80;;
76837;SDS011;65797;47.352;8.164;2023-12-20T09:37:57;7.77;;;6.03;;
76837;SDS011;65797;47.352;8.164;2023-12-20T09:40:23;9.60;;;6.10;;
76837;SDS011;65797;47.352;8.164;2023-12-20T09:42:58;10.63;;;7.67;;
76837;SDS011;65797;47.352;8.164;2023-12-20T09:45:35;7.37;;;6.03;;
76837;SDS011;65797;47.352;8.164;2023-12-20T09:48:01;7.17;;;5.10;;
76837;SDS011;65797;47.352;8.164;2023-12-20T09:50:30;9.07;;;5.90;;
76837;SDS011;65797;47.352;8.164;2023-12-20T09:52:57;9.17;;;6.37;;
76837;SDS011;65797;47.352;8.164;2023-12-20T09:55:25;9.93;;;6.20;;
76837;SDS011;65797;47.352;8.164;2023-12-20T09:57:53;10.47;;;6.20;;
76837;SDS011;65797;47.352;8.164;2023-12-20T10:00:19;7.77;;;5.70;;
76837;SDS011;65797;47.352;8.164;2023-12-20T10:03:06;8.97;;;5.77;;
76837;SDS011;65797;47.352;8.164;2023-12-20T10:05:31;6.80;;;5.30;;
76837;SDS011;65797;47.352;8.164;2023-12-20T10:07:58;11.07;;;6.57;;
76837;SDS011;65797;47.352;8.164;2023-12-20T10:10:24;7.33;;;5.10;;
76837;SDS011;65797;47.352;8.164;2023-12-20T10:13:06;6.07;;;4.90;;
76837;SDS011;65797;47.352;8.164;2023-12-20T10:15:33;8.83;;;5.20;;
76837;SDS011;65797;47.352;8.164;2023-12-20T10:18:00;8.03;;;5.73;;
76837;SDS011;65797;47.352;8.164;2023-12-20T10:20:27;6.77;;;5.23;;
76837;SDS011;65797;47.352;8.164;2023-12-20T10:22:54;6.90;;;5.40;;
76837;SDS011;65797;47.352;8.164;2023-12-20T10:25:21;7.90;;;5.80;;
76837;SDS011;65797;47.352;8.164;2023-12-20T10:27:47;6.27;;;4.77;;
76837;SDS011;65797;47.352;8.164;2023-12-20T10:30:13;7.80;;;5.00;;
76837;SDS011;65797;47.352;8.164;2023-12-20T10:32:39;6.40;;;4.70;;
76837;SDS011;65797;47.352;8.164;2023-12-20T10:35:05;6.60;;;4.20;;
76837;SDS011;65797;47.352;8.164;2023-12-20T10:37:34;5.00;;;4.37;;
76837;SDS011;65797;47.352;8.164;2023-12-20T10:40:01;5.97;;;5.23;;
76837;SDS011;65797;47.352;8.164;2023-12-20T10:42:29;7.53;;;4.67;;
76837;SDS011;65797;47.352;8.164;2023-12-20T10:44:56;10.70;;;4.90;;
76837;SDS011;65797;47.352;8.164;2023-12-20T10:47:24;4.87;;;3.97;;
76837;SDS011;65797;47.352;8.164;2023-12-20T10:49:52;5.53;;;4.47;;
76837;SDS011;65797;47.352;8.164;2023-12-20T10:52:18;5.03;;;3.90;;
76837;SDS011;65797;47.352;8.164;2023-12-20T10:54:47;5.20;;;4.10;;
76837;SDS011;65797;47.352;8.164;2023-12-20T10:57:13;4.50;;;3.73;;
76837;SDS011;65797;47.352;8.164;2023-12-20T10:59:41;4.83;;;3.83;;
76837;SDS011;65797;47.352;8.164;2023-12-20T11:02:10;4.60;;;3.60;;
76837;SDS011;65797;47.352;8.164;2023-12-20T11:04:56;5.23;;;3.73;;
76837;SDS011;65797;47.352;8.164;2023-12-20T11:07:33;5.07;;;3.97;;
76837;SDS011;65797;47.352;8.164;2023-12-20T11:10:12;12.27;;;4.73;;
76837;SDS011;65797;47.352;8.164;2023-12-20T11:13:01;3.73;;;3.33;;
76837;SDS011;65797;47.352;8.164;2023-12-20T11:15:37;4.73;;;3.13;;
76837;SDS011;65797;47.352;8.164;2023-12-20T11:18:03;3.50;;;3.17;;
76837;SDS011;65797;47.352;8.164;2023-12-20T11:20:40;6.70;;;3.20;;
76837;SDS011;65797;47.352;8.164;2023-12-20T11:23:07;2.63;;;2.17;;
76837;SDS011;65797;47.352;8.164;2023-12-20T11:25:47;2.00;;;1.90;;
76837;SDS011;65797;47.352;8.164;2023-12-20T11:28:13;2.00;;;1.90;;
76837;SDS011;65797;47.352;8.164;2023-12-20T11:30:45;2.40;;;1.90;;
76837;SDS011;65797;47.352;8.164;2023-12-20T11:33:15;2.10;;;2.00;;
76837;SDS011;65797;47.352;8.164;2023-12-20T11:35:41;1.37;;;1.27;;
76837;SDS011;65797;47.352;8.164;2023-12-20T11:38:08;2.20;;;2.00;;
76837;SDS011;65797;47.352;8.164;2023-12-20T11:40:35;1.57;;;1.47;;
76837;SDS011;65797;47.352;8.164;2023-12-20T11:43:03;1.30;;;1.20;;
76837;SDS011;65797;47.352;8.164;2023-12-20T11:45:32;1.17;;;1.17;;
76837;SDS011;65797;47.352;8.164;2023-12-20T11:47:59;6.00;;;1.10;;
76837;SDS011;65797;47.352;8.164;2023-12-20T11:50:29;1.40;;;1.23;;
76837;SDS011;65797;47.352;8.164;2023-12-20T11:52:55;0.87;;;0.87;;
76837;SDS011;65797;47.352;8.164;2023-12-20T11:55:24;1.70;;;1.10;;
76837;SDS011;65797;47.352;8.164;2023-12-20T11:57:50;4.50;;;1.23;;
76837;SDS011;65797;47.352;8.164;2023-12-20T12:00:17;1.33;;;1.23;;
76837;SDS011;65797;47.352;8.164;2023-12-20T12:02:43;1.67;;;0.97;;
76837;SDS011;65797;47.352;8.164;2023-12-20T12:05:19;0.90;;;0.90;;
76837;SDS011;65797;47.352;8.164;2023-12-20T12:07:45;0.87;;;0.87;;
76837;SDS011;65797;47.352;8.164;2023-12-20T12:10:10;1.17;;;0.90;;
76837;SDS011;65797;47.352;8.164;2023-12-20T12:12:36;0.90;;;0.90;;
76837;SDS011;65797;47.352;8.164;2023-12-20T12:15:02;0.80;;;0.80;;
76837;SDS011;65797;47.352;8.164;2023-12-20T12:17:29;0.90;;;0.90;;
76837;SDS011;65797;47.352;8.164;2023-12-20T12:20:02;2.90;;;1.03;;
76837;SDS011;65797;47.352;8.164;2023-12-20T12:22:29;0.60;;;0.60;;
76837;SDS011;65797;47.352;8.164;2023-12-20T12:24:55;1.10;;;1.00;;
76837;SDS011;65797;47.352;8.164;2023-12-20T12:27:24;3.77;;;1.20;;
76837;SDS011;65797;47.352;8.164;2023-12-20T12:30:00;0.60;;;0.60;;
76837;SDS011;65797;47.352;8.164;2023-12-20T12:32:30;0.80;;;0.80;;
76837;SDS011;65797;47.352;8.164;2023-12-20T12:34:55;0.90;;;0.90;;
76837;SDS011;65797;47.352;8.164;2023-12-20T12:37:22;1.93;;;1.00;;
76837;SDS011;65797;47.352;8.164;2023-12-20T12:39:49;10.33;;;0.97;;
76837;SDS011;65797;47.352;8.164;2023-12-20T12:42:15;0.70;;;0.70;;
76837;SDS011;65797;47.352;8.164;2023-12-20T12:44:40;0.70;;;0.70;;
76837;SDS011;65797;47.352;8.164;2023-12-20T12:47:06;3.20;;;0.87;;
76837;SDS011;65797;47.352;8.164;2023-12-20T12:49:33;0.90;;;0.90;;
76837;SDS011;65797;47.352;8.164;2023-12-20T12:51:58;0.93;;;0.93;;
76837;SDS011;65797;47.352;8.164;2023-12-20T12:54:24;1.90;;;1.40;;
76837;SDS011;65797;47.352;8.164;2023-12-20T12:56:50;1.13;;;0.90;;
76837;SDS011;65797;47.352;8.164;2023-12-20T12:59:17;1.53;;;1.20;;
76837;SDS011;65797;47.352;8.164;2023-12-20T13:01:43;1.87;;;1.10;;
76837;SDS011;65797;47.352;8.164;2023-12-20T13:04:09;0.80;;;0.80;;
76837;SDS011;65797;47.352;8.164;2023-12-20T13:06:37;0.90;;;0.90;;
76837;SDS011;65797;47.352;8.164;2023-12-20T13:09:03;1.20;;;1.20;;
76837;SDS011;65797;47.352;8.164;2023-12-20T13:11:34;3.47;;;1.60;;
76837;SDS011;65797;47.352;8.164;2023-12-20T13:14:00;1.37;;;1.07;;
76837;SDS011;65797;47.352;8.164;2023-12-20T13:24:25;1.83;;;1.40;;
76837;SDS011;65797;47.352;8.164;2023-12-20T13:29:26;4.37;;;1.67;;
76837;SDS011;65797;47.352;8.164;2023-12-20T13:31:54;2.93;;;1.50;;
76837;SDS011;65797;47.352;8.164;2023-12-20T13:34:20;1.33;;;1.23;;
76837;SDS011;65797;47.352;8.164;2023-12-20T13:36:46;3.90;;;1.33;;
76837;SDS011;65797;47.352;8.164;2023-12-20T13:39:12;2.67;;;1.33;;
76837;SDS011;65797;47.352;8.164;2023-12-20T13:41:39;1.63;;;1.30;;
76837;SDS011;65797;47.352;8.164;2023-12-20T13:44:04;1.37;;;1.20;;
76837;SDS011;65797;47.352;8.164;2023-12-20T13:46:30;3.27;;;1.27;;
76837;SDS011;65797;47.352;8.164;2023-12-20T13:48:56;2.23;;;1.30;;
76837;SDS011;65797;47.352;8.164;2023-12-20T13:51:22;2.30;;;0.90;;
76837;SDS011;65797;47.352;8.164;2023-12-20T14:15:22;3.10;;;1.10;;
76837;SDS011;65797;47.352;8.164;2023-12-20T14:17:50;3.47;;;1.10;;
76837;SDS011;65797;47.352;8.164;2023-12-20T14:20:16;3.20;;;1.13;;
76837;SDS011;65797;47.352;8.164;2023-12-20T14:22:43;4.13;;;0.93;;
76837;SDS011;65797;47.352;8.164;2023-12-20T15:09:10;1.63;;;1.20;;
76837;SDS011;65797;47.352;8.164;2023-12-20T15:37:29;4.20;;;1.77;;
76837;SDS011;65797;47.352;8.164;2023-12-20T15:39:55;3.40;;;1.70;;
76837;SDS011;65797;47.352;8.164;2023-12-20T15:42:21;2.00;;;1.77;;
76837;SDS011;65797;47.352;8.164;2023-12-20T15:44:48;6.17;;;2.47;;
76837;SDS011;65797;47.352;8.164;2023-12-20T15:47:15;3.90;;;2.53;;
76837;SDS011;65797;47.352;8.164;2023-12-20T16:41:14;6.67;;;3.30;;
76837;SDS011;65797;47.352;8.164;2023-12-20T16:43:40;6.30;;;2.13;;
76837;SDS011;65797;47.352;8.164;2023-12-20T16:46:06;4.57;;;1.83;;
76837;SDS011;65797;47.352;8.164;2023-12-20T19:46:27;1.77;;;1.10;;
76837;SDS011;65797;47.352;8.164;2023-12-20T19:48:54;2.20;;;1.13;;
